createdAt,value
2023-03-15T00:01:18.674Z,0.40
2023-03-15T00:03:46.208Z,0.40
2023-03-15T00:06:13.291Z,0.38
2023-03-15T00:08:39.706Z,0.37
2023-03-15T00:11:07.000Z,0.37
2023-03-15T00:13:33.815Z,0.34
2023-03-15T00:16:03.623Z,0.35
2023-03-15T00:18:30.757Z,0.33
2023-03-15T00:20:57.798Z,0.37
2023-03-15T00:23:24.148Z,0.38
2023-03-15T00:25:52.064Z,0.40
2023-03-15T00:28:18.747Z,0.43
2023-03-15T00:30:45.529Z,0.44
2023-03-15T00:33:14.112Z,0.43
2023-03-15T00:35:43.352Z,0.39
2023-03-15T00:38:10.691Z,0.32
2023-03-15T00:40:38.089Z,0.30
2023-03-15T00:43:04.635Z,0.27
2023-03-15T00:45:31.159Z,0.28
2023-03-15T00:47:57.476Z,0.30
2023-03-15T00:50:23.885Z,0.31
2023-03-15T00:52:50.451Z,0.34
2023-03-15T00:55:19.220Z,0.35
2023-03-15T00:57:46.512Z,0.40
2023-03-15T01:00:16.969Z,0.43
2023-03-15T01:02:43.572Z,0.42
2023-03-15T01:05:10.760Z,0.40
2023-03-15T01:07:37.110Z,0.42
2023-03-15T01:10:05.492Z,0.43
2023-03-15T01:12:33.243Z,0.42
2023-03-15T01:15:00.690Z,0.41
2023-03-15T01:17:27.300Z,0.38
2023-03-15T01:19:53.900Z,0.30
2023-03-15T01:22:21.029Z,0.25
2023-03-15T01:24:47.402Z,0.29
2023-03-15T01:27:13.760Z,0.29
2023-03-15T01:29:40.580Z,0.26
2023-03-15T01:32:07.686Z,0.24
2023-03-15T01:34:35.048Z,0.20
2023-03-15T01:37:02.835Z,0.19
2023-03-15T01:39:30.836Z,0.19
2023-03-15T01:41:57.384Z,0.22
2023-03-15T01:44:24.180Z,0.26
2023-03-15T01:46:51.824Z,0.32
2023-03-15T01:49:27.348Z,0.36
2023-03-15T01:52:12.879Z,0.34
2023-03-15T01:54:42.231Z,0.38
2023-03-15T01:57:10.573Z,0.32
2023-03-15T01:59:43.055Z,0.29
2023-03-15T02:02:09.748Z,0.34
2023-03-15T02:04:50.071Z,0.34
2023-03-15T02:07:18.052Z,0.35
2023-03-15T02:09:54.343Z,0.38
2023-03-15T02:12:20.701Z,0.43
2023-03-15T02:14:49.412Z,0.44
2023-03-15T02:17:15.965Z,0.43
2023-03-15T02:20:05.833Z,0.45
2023-03-15T02:22:55.748Z,0.49
2023-03-15T02:25:39.707Z,0.50
2023-03-15T02:28:07.943Z,0.48
2023-03-15T02:30:35.406Z,0.47
2023-03-15T02:33:05.357Z,0.49
2023-03-15T02:35:33.317Z,0.48
2023-03-15T02:37:59.815Z,0.47
2023-03-15T02:40:28.726Z,0.48
2023-03-15T02:43:00.473Z,0.50
2023-03-15T02:45:28.991Z,0.51
2023-03-15T02:47:55.394Z,0.49
2023-03-15T02:50:21.886Z,0.49
2023-03-15T02:52:48.229Z,0.58
2023-03-15T02:55:14.655Z,0.59
2023-03-15T02:57:41.102Z,0.57
2023-03-15T03:00:14.292Z,0.57
2023-03-15T03:02:42.953Z,0.61
2023-03-15T03:05:10.854Z,0.61
2023-03-15T03:07:37.208Z,0.59
2023-03-15T03:10:05.138Z,0.62
2023-03-15T03:12:32.378Z,0.57
2023-03-15T03:14:59.182Z,0.58
2023-03-15T03:17:25.543Z,0.59
2023-03-15T03:19:52.562Z,0.56
2023-03-15T03:22:19.083Z,0.57
2023-03-15T03:24:46.268Z,0.57
2023-03-15T03:27:14.842Z,0.55
2023-03-15T03:29:41.788Z,0.59
2023-03-15T03:32:08.695Z,0.63
2023-03-15T03:34:35.419Z,0.63
2023-03-15T03:37:01.838Z,0.61
2023-03-15T03:39:28.467Z,0.61
2023-03-15T03:41:54.789Z,0.52
2023-03-15T03:44:21.358Z,0.49
2023-03-15T03:46:47.686Z,0.50
2023-03-15T03:49:14.788Z,0.49
2023-03-15T03:51:41.151Z,0.44
2023-03-15T03:54:07.638Z,0.30
2023-03-15T03:56:34.029Z,0.29
2023-03-15T03:59:00.448Z,0.29
2023-03-15T04:01:26.777Z,0.29
2023-03-15T04:03:53.475Z,0.36
2023-03-15T04:06:19.796Z,0.36
2023-03-15T04:08:46.165Z,0.38
2023-03-15T04:11:17.661Z,0.40
2023-03-15T04:13:45.362Z,0.42
2023-03-15T04:16:12.694Z,0.42
2023-03-15T04:18:40.140Z,0.32
2023-03-15T04:21:10.748Z,0.28
2023-03-15T04:23:38.076Z,0.32
2023-03-15T04:26:07.841Z,0.35
2023-03-15T04:28:34.196Z,0.29
2023-03-15T04:31:00.687Z,0.28
2023-03-15T04:33:28.191Z,0.26
2023-03-15T04:35:54.605Z,0.29
2023-03-15T04:38:26.582Z,0.27
2023-03-15T04:40:56.552Z,0.25
2023-03-15T04:43:24.352Z,0.20
2023-03-15T04:45:51.743Z,0.19
2023-03-15T04:48:18.178Z,0.17
2023-03-15T04:50:44.617Z,0.17
2023-03-15T04:53:11.008Z,0.18
2023-03-15T04:55:37.346Z,0.19
2023-03-15T04:58:03.841Z,0.19
2023-03-15T05:00:30.231Z,0.16
2023-03-15T05:02:56.803Z,0.18
2023-03-15T05:05:23.972Z,0.18
2023-03-15T05:07:50.410Z,0.16
2023-03-15T05:10:17.199Z,0.10
2023-03-15T05:12:43.591Z,0.07
2023-03-15T05:15:10.542Z,0.07
2023-03-15T05:17:36.955Z,0.04
2023-03-15T05:20:10.682Z,0.03
2023-03-15T05:22:37.579Z,-0.01
2023-03-15T05:25:04.464Z,0.02
2023-03-15T05:27:32.629Z,0.01
2023-03-15T05:29:59.078Z,-0.01
2023-03-15T05:32:26.827Z,-0.06
2023-03-15T05:34:56.246Z,-0.13
2023-03-15T05:37:23.450Z,-0.18
2023-03-15T05:39:50.098Z,-0.15
2023-03-15T05:42:21.907Z,-0.15
2023-03-15T05:44:49.065Z,-0.17
2023-03-15T05:47:15.446Z,-0.11
2023-03-15T05:49:41.975Z,-0.11
2023-03-15T05:52:08.525Z,-0.11
2023-03-15T05:54:34.932Z,-0.21
2023-03-15T05:57:01.262Z,-0.22
2023-03-15T05:59:27.638Z,-0.24
2023-03-15T06:01:53.980Z,-0.19
2023-03-15T06:04:20.584Z,-0.16
2023-03-15T06:06:47.101Z,-0.18
2023-03-15T06:09:13.489Z,-0.17
2023-03-15T06:11:39.942Z,-0.14
2023-03-15T06:14:06.393Z,-0.10
2023-03-15T06:16:32.740Z,-0.07
2023-03-15T06:18:59.165Z,-0.07
2023-03-15T06:21:25.929Z,-0.09
2023-03-15T06:23:52.304Z,-0.05
2023-03-15T06:26:19.361Z,0.03
2023-03-15T06:28:46.137Z,0.04
2023-03-15T06:31:14.210Z,0.06
2023-03-15T06:33:40.880Z,0.11
2023-03-15T06:36:07.772Z,0.16
2023-03-15T06:38:34.344Z,0.20
2023-03-15T06:41:01.125Z,0.23
2023-03-15T06:43:28.390Z,0.28
2023-03-15T06:45:55.873Z,0.34
2023-03-15T06:48:22.364Z,0.45
2023-03-15T06:50:48.726Z,0.45
2023-03-15T06:53:15.768Z,0.43
2023-03-15T06:55:42.714Z,0.51
2023-03-15T06:58:09.204Z,0.57
2023-03-15T07:00:36.088Z,0.60
2023-03-15T07:03:02.529Z,0.60
2023-03-15T07:05:28.950Z,0.59
2023-03-15T07:07:55.404Z,0.55
2023-03-15T07:10:21.799Z,0.49
2023-03-15T07:12:48.240Z,0.44
2023-03-15T07:15:17.087Z,0.38
2023-03-15T07:17:43.750Z,0.31
2023-03-15T07:20:11.021Z,0.29
2023-03-15T07:22:37.493Z,0.15
2023-03-15T07:25:04.858Z,0.12
2023-03-15T07:27:31.229Z,0.17
2023-03-15T07:29:57.618Z,0.23
2023-03-15T07:32:24.095Z,0.25
2023-03-15T07:34:50.453Z,0.28
2023-03-15T07:37:17.459Z,0.31
2023-03-15T07:39:43.837Z,0.30
2023-03-15T07:42:10.256Z,0.28
2023-03-15T07:44:36.616Z,0.29
2023-03-15T07:47:03.073Z,0.35
2023-03-15T07:49:31.029Z,0.45
2023-03-15T07:51:57.783Z,0.67
2023-03-15T07:54:24.153Z,0.90
2023-03-15T07:56:50.485Z,1.10
2023-03-15T07:59:16.842Z,1.30
2023-03-15T08:01:43.185Z,1.69
2023-03-15T08:04:09.610Z,1.98
2023-03-15T08:06:36.016Z,2.12
2023-03-15T08:09:05.615Z,2.15
2023-03-15T08:11:33.030Z,2.17
2023-03-15T08:13:59.520Z,2.15
2023-03-15T08:16:25.884Z,2.22
2023-03-15T08:18:52.277Z,2.04
2023-03-15T09:03:22.596Z,25.83
2023-03-15T09:12:06.752Z,14.03
2023-03-15T09:14:33.093Z,9.45
2023-03-15T09:16:59.620Z,6.62
2023-03-15T09:19:26.009Z,5.37
2023-03-15T09:21:52.447Z,4.49
2023-03-15T09:24:18.789Z,4.29
2023-03-15T09:27:58.370Z,4.23
2023-03-15T09:30:25.071Z,3.94
2023-03-15T09:32:51.686Z,4.03
2023-03-15T09:35:20.053Z,4.10
2023-03-15T09:37:47.775Z,4.30
2023-03-15T09:40:38.560Z,4.55
2023-03-15T09:43:08.722Z,4.64
2023-03-15T09:46:09.542Z,4.58
2023-03-15T09:48:48.324Z,4.39
2023-03-15T09:51:28.618Z,4.26
2023-03-15T09:54:01.585Z,3.86
2023-03-15T09:56:36.876Z,3.87
2023-03-15T09:59:03.725Z,3.72
2023-03-15T10:01:34.665Z,3.66
2023-03-15T10:04:18.462Z,3.63
2023-03-15T10:06:49.764Z,3.58
2023-03-15T10:09:22.218Z,3.59
2023-03-15T10:12:13.401Z,3.81
2023-03-15T10:14:58.190Z,4.06
2023-03-15T10:17:35.138Z,4.17
2023-03-15T10:20:15.946Z,4.39
2023-03-15T10:22:45.376Z,4.33
2023-03-15T10:25:26.110Z,4.37
2023-03-15T10:27:55.248Z,4.43
2023-03-15T10:30:27.449Z,4.37
2023-03-15T10:32:56.728Z,4.15
2023-03-15T10:35:23.228Z,4.23
2023-03-15T10:37:49.907Z,4.34
2023-03-15T10:40:49.317Z,4.39
2023-03-15T10:43:32.382Z,4.17
2023-03-15T10:46:03.365Z,4.60
2023-03-15T10:48:35.328Z,4.94
2023-03-15T10:51:25.233Z,5.16
2023-03-15T10:53:55.624Z,5.35
2023-03-15T10:56:26.066Z,5.31
2023-03-15T10:59:11.021Z,5.43
2023-03-15T11:01:38.689Z,5.63
2023-03-15T11:04:18.169Z,5.90
2023-03-15T11:07:13.398Z,6.11
2023-03-15T11:09:45.644Z,6.16
2023-03-15T11:12:44.543Z,6.32
2023-03-15T11:15:14.737Z,6.57
2023-03-15T11:17:47.965Z,6.67
2023-03-15T11:20:38.627Z,6.41
2023-03-15T11:23:20.431Z,5.97
2023-03-15T11:25:47.421Z,5.86
2023-03-15T11:28:25.380Z,5.83
2023-03-15T11:30:52.015Z,5.82
2023-03-15T11:33:33.887Z,5.96
2023-03-15T11:36:05.236Z,6.26
2023-03-15T11:38:43.903Z,6.41
2023-03-15T11:41:21.687Z,6.25
2023-03-15T11:43:56.719Z,6.25
2023-03-15T11:46:29.234Z,6.01
2023-03-15T11:49:03.220Z,5.75
2023-03-15T11:51:34.953Z,5.32
2023-03-15T11:54:08.792Z,4.92
2023-03-15T11:56:43.992Z,5.08
2023-03-15T11:59:20.416Z,6.10
2023-03-15T12:01:57.818Z,7.05
2023-03-15T12:04:24.236Z,7.64
2023-03-15T12:06:56.640Z,7.71
2023-03-15T12:09:32.209Z,6.92
2023-03-15T12:12:03.245Z,6.28
2023-03-15T12:14:32.593Z,5.75
2023-03-15T12:17:23.998Z,5.04
2023-03-15T12:20:07.359Z,4.15
2023-03-15T12:22:34.535Z,3.98
2023-03-15T12:25:12.103Z,4.21
2023-03-15T12:27:47.077Z,4.40
2023-03-15T12:30:36.733Z,4.33
2023-03-15T12:33:03.701Z,4.51
2023-03-15T12:35:40.318Z,5.31
2023-03-15T12:38:23.437Z,6.05
2023-03-15T12:40:56.225Z,6.60
2023-03-15T12:43:43.811Z,6.71
2023-03-15T12:46:36.662Z,7.28
2023-03-15T12:49:18.552Z,7.47
2023-03-15T12:51:59.161Z,7.90
2023-03-15T12:54:33.942Z,7.92
2023-03-15T12:57:03.676Z,8.27
2023-03-15T12:59:33.017Z,8.62
2023-03-15T13:02:01.701Z,8.76
2023-03-15T13:04:30.855Z,8.54
2023-03-15T13:07:07.337Z,9.19
2023-03-15T13:09:56.663Z,8.59
2023-03-15T13:12:35.286Z,8.54
2023-03-15T13:15:27.960Z,8.35
2023-03-15T13:17:58.941Z,8.95
2023-03-15T13:20:40.985Z,8.85
2023-03-15T13:23:21.799Z,8.45
2023-03-15T13:25:54.655Z,8.39
2023-03-15T13:28:24.563Z,8.33
2023-03-15T13:30:54.170Z,7.92
2023-03-15T13:33:21.032Z,7.47
2023-03-15T13:35:57.903Z,7.32
2023-03-15T13:38:27.890Z,6.95
2023-03-15T13:40:56.298Z,7.15
2023-03-15T13:43:37.659Z,7.32
2023-03-15T13:46:05.797Z,7.23
2023-03-15T13:48:35.055Z,6.80
2023-03-15T13:51:06.096Z,6.43
2023-03-15T13:53:48.561Z,6.14
2023-03-15T13:56:19.615Z,5.71
2023-03-15T13:58:46.994Z,5.52
2023-03-15T14:01:14.511Z,5.18
2023-03-15T14:03:43.849Z,4.92
2023-03-15T14:06:22.026Z,4.85
2023-03-15T14:08:49.772Z,4.73
2023-03-15T14:11:32.524Z,4.61
2023-03-15T14:14:05.558Z,4.67
2023-03-15T14:16:33.493Z,4.81
2023-03-15T14:19:18.124Z,5.16
2023-03-15T14:21:48.925Z,5.91
2023-03-15T14:24:20.932Z,6.46
2023-03-15T14:26:53.240Z,6.93
2023-03-15T14:29:30.325Z,6.95
2023-03-15T14:32:01.315Z,7.27
2023-03-15T14:34:33.559Z,7.07
2023-03-15T14:37:04.412Z,7.01
2023-03-15T14:39:39.499Z,7.86
2023-03-15T14:42:09.888Z,8.10
2023-03-15T14:44:36.322Z,7.22
2023-03-15T14:47:12.153Z,7.06
2023-03-15T14:49:38.604Z,6.93
2023-03-15T14:52:06.416Z,7.19
2023-03-15T14:54:34.274Z,7.90
2023-03-15T14:57:00.880Z,8.18
2023-03-15T14:59:27.395Z,8.18
2023-03-15T15:01:57.804Z,8.21
2023-03-15T15:04:30.299Z,8.34
2023-03-15T15:06:57.858Z,8.39
2023-03-15T15:09:27.828Z,8.54
2023-03-15T15:11:54.717Z,8.43
2023-03-15T15:14:24.674Z,8.16
2023-03-15T15:16:52.227Z,7.52
2023-03-15T15:19:19.004Z,7.33
2023-03-15T15:21:45.676Z,7.51
2023-03-15T15:24:17.156Z,7.80
2023-03-15T15:26:44.938Z,7.75
2023-03-15T15:29:14.213Z,7.48
2023-03-15T15:31:41.627Z,7.22
2023-03-15T15:34:08.924Z,7.14
2023-03-15T15:36:41.182Z,7.40
2023-03-15T15:39:20.507Z,7.38
2023-03-15T15:41:47.051Z,7.28
2023-03-15T15:44:18.997Z,7.41
2023-03-15T15:46:45.645Z,7.49
2023-03-15T15:49:12.680Z,7.45
2023-03-15T15:51:49.874Z,7.40
2023-03-15T15:54:19.524Z,7.42
2023-03-15T15:56:57.446Z,7.38
2023-03-15T15:59:25.611Z,7.38
2023-03-15T16:02:01.112Z,7.03
2023-03-15T16:04:28.874Z,7.02
2023-03-15T16:06:58.711Z,7.01
2023-03-15T16:09:27.540Z,6.81
2023-03-15T16:11:54.210Z,6.79
2023-03-15T16:14:20.722Z,6.75
2023-03-15T16:16:48.551Z,6.77
2023-03-15T16:19:15.043Z,6.72
2023-03-15T16:21:45.238Z,6.54
2023-03-15T16:24:19.318Z,6.61
2023-03-15T16:26:47.941Z,6.68
2023-03-15T16:29:22.268Z,6.61
2023-03-15T16:31:49.715Z,6.72
2023-03-15T16:34:17.953Z,6.86
2023-03-15T16:36:49.192Z,6.67
2023-03-15T16:39:16.544Z,6.52
2023-03-15T16:41:43.029Z,6.53
2023-03-15T16:44:18.101Z,6.41
2023-03-15T16:46:45.334Z,6.32
2023-03-15T16:49:13.685Z,6.25
2023-03-15T16:51:52.701Z,6.18
2023-03-15T16:54:34.622Z,5.97
2023-03-15T16:57:16.412Z,5.95
2023-03-15T16:59:42.864Z,5.97
2023-03-15T17:02:20.006Z,5.84
2023-03-15T17:04:46.989Z,5.84
2023-03-15T17:07:14.713Z,5.66
2023-03-15T17:09:43.933Z,5.64
2023-03-15T17:12:19.264Z,5.56
2023-03-15T17:14:45.702Z,5.61
2023-03-15T17:17:12.166Z,5.63
2023-03-15T17:19:38.616Z,5.32
2023-03-15T17:22:06.266Z,5.32
2023-03-15T17:24:32.898Z,5.34
2023-03-15T17:26:59.572Z,5.25
2023-03-15T17:29:26.038Z,5.28
2023-03-15T17:31:53.062Z,5.19
2023-03-15T17:34:22.089Z,5.14
2023-03-15T17:36:48.634Z,5.08
2023-03-15T17:39:16.990Z,5.15
2023-03-15T17:41:47.583Z,5.02
2023-03-15T17:44:14.072Z,5.02
2023-03-15T17:46:40.633Z,4.94
2023-03-15T17:49:08.909Z,4.86
2023-03-15T17:51:37.358Z,4.88
2023-03-15T17:54:13.244Z,4.95
2023-03-15T17:56:40.151Z,4.94
2023-03-15T17:59:06.626Z,4.83
2023-03-15T18:01:35.442Z,4.76
2023-03-15T18:04:01.970Z,4.76
2023-03-15T18:06:28.670Z,4.78
2023-03-15T18:08:55.107Z,4.64
2023-03-15T18:11:28.745Z,4.63
2023-03-15T18:13:56.063Z,4.54
2023-03-15T18:16:22.920Z,4.52
2023-03-15T18:18:49.935Z,4.52
2023-03-15T18:21:19.438Z,4.53
2023-03-15T18:23:45.988Z,4.39
2023-03-15T18:26:13.154Z,4.38
2023-03-15T18:28:40.280Z,4.33
2023-03-15T18:31:18.648Z,4.40
2023-03-15T18:33:45.244Z,4.33
2023-03-15T18:36:11.905Z,4.21
2023-03-15T18:38:38.750Z,4.17
2023-03-15T18:41:24.867Z,4.04
2023-03-15T18:43:51.961Z,3.96
2023-03-15T18:46:25.602Z,4.02
2023-03-15T18:48:53.458Z,4.02
2023-03-15T18:51:22.967Z,4.01
2023-03-15T18:53:49.551Z,4.03
2023-03-15T18:56:22.589Z,3.91
2023-03-15T18:58:51.034Z,3.93
2023-03-15T19:01:19.614Z,3.81
2023-03-15T19:03:46.142Z,3.75
2023-03-15T19:06:13.657Z,3.83
2023-03-15T19:08:40.936Z,3.74
2023-03-15T19:11:08.461Z,3.90
2023-03-15T19:13:35.219Z,3.66
2023-03-15T19:16:02.547Z,3.67
2023-03-15T19:18:29.527Z,3.75
2023-03-15T19:20:56.172Z,3.60
2023-03-15T19:23:22.789Z,3.64
2023-03-15T19:25:49.347Z,3.58
2023-03-15T19:28:16.264Z,3.42
2023-03-15T19:30:42.908Z,3.36
2023-03-15T19:33:09.754Z,3.33
2023-03-15T19:35:36.450Z,3.15
2023-03-15T19:38:04.048Z,3.20
2023-03-15T19:40:30.686Z,3.17
2023-03-15T19:42:57.130Z,3.07
2023-03-15T19:45:23.681Z,3.18
2023-03-15T19:47:51.763Z,3.05
2023-03-15T19:50:18.384Z,2.95
2023-03-15T19:52:48.075Z,3.06
2023-03-15T19:55:17.412Z,3.05
2023-03-15T19:57:44.813Z,3.04
2023-03-15T20:00:14.481Z,2.99
2023-03-15T20:02:41.564Z,2.78
2023-03-15T20:05:10.485Z,2.58
2023-03-15T20:07:37.200Z,2.49
2023-03-15T20:10:05.416Z,2.46
2023-03-15T20:12:32.557Z,2.51
2023-03-15T20:14:59.019Z,2.44
2023-03-15T20:17:26.838Z,2.54
2023-03-15T20:19:53.462Z,2.51
2023-03-15T20:22:19.921Z,2.46
2023-03-15T20:24:46.861Z,2.42
2023-03-15T20:27:13.404Z,2.60
2023-03-15T20:29:39.969Z,2.63
2023-03-15T20:32:06.649Z,2.51
2023-03-15T20:34:33.128Z,2.47
2023-03-15T20:37:00.057Z,2.56
2023-03-15T20:39:26.505Z,2.54
2023-03-15T20:41:53.367Z,2.57
2023-03-15T20:44:19.814Z,2.53
2023-03-15T20:46:46.445Z,2.57
2023-03-15T20:49:14.134Z,2.45
2023-03-15T20:51:40.642Z,2.34
2023-03-15T20:54:07.059Z,2.30
2023-03-15T20:56:34.241Z,2.15
2023-03-15T20:59:01.469Z,2.32
2023-03-15T21:01:28.298Z,2.32
2023-03-15T21:03:56.091Z,2.29
2023-03-15T21:06:23.396Z,2.17
2023-03-15T21:08:50.150Z,2.18
2023-03-15T21:11:16.922Z,2.09
2023-03-15T21:13:43.520Z,2.13
2023-03-15T21:16:12.343Z,2.05
2023-03-15T21:18:39.006Z,2.05
2023-03-15T21:21:07.694Z,2.09
2023-03-15T21:23:35.278Z,2.20
2023-03-15T21:26:04.362Z,2.08
2023-03-15T21:28:31.830Z,2.08
2023-03-15T21:30:58.618Z,2.11
2023-03-15T21:33:26.941Z,1.96
2023-03-15T21:35:53.938Z,1.93
2023-03-15T21:38:21.066Z,1.85
2023-03-15T21:40:52.486Z,1.79
2023-03-15T21:43:19.232Z,1.74
2023-03-15T21:45:46.030Z,1.62
2023-03-15T21:48:12.467Z,1.63
2023-03-15T21:50:38.936Z,1.51
2023-03-15T21:53:05.302Z,1.56
2023-03-15T21:55:33.847Z,1.64
2023-03-15T21:58:07.366Z,1.54
2023-03-15T22:00:33.891Z,1.44
2023-03-15T22:03:01.338Z,1.46
2023-03-15T22:05:28.152Z,1.31
2023-03-15T22:07:54.570Z,1.28
2023-03-15T22:10:22.517Z,1.18
2023-03-15T22:12:49.238Z,1.24
2023-03-15T22:15:15.871Z,1.30
2023-03-15T22:17:42.285Z,1.23
2023-03-15T22:20:13.272Z,1.22
2023-03-15T22:22:39.702Z,1.26
2023-03-15T22:25:06.608Z,1.42
2023-03-15T22:27:33.036Z,1.37
2023-03-15T22:29:59.598Z,1.34
2023-03-15T22:32:26.237Z,1.25
2023-03-15T22:34:52.710Z,1.28
2023-03-15T22:37:19.135Z,1.22
2023-03-15T22:39:46.159Z,1.21
2023-03-15T22:42:12.562Z,1.14
2023-03-15T22:44:39.021Z,1.18
2023-03-15T22:47:05.586Z,1.29
2023-03-15T22:49:32.245Z,1.35
2023-03-15T22:51:58.687Z,1.29
2023-03-15T22:54:25.269Z,1.28
2023-03-15T22:56:51.644Z,1.28
2023-03-15T22:59:18.230Z,1.27
2023-03-15T23:01:44.659Z,1.28
2023-03-15T23:04:11.456Z,1.27
2023-03-15T23:06:37.920Z,1.17
2023-03-15T23:09:06.559Z,1.17
2023-03-15T23:11:33.184Z,1.13
2023-03-15T23:13:59.625Z,1.14
2023-03-15T23:16:26.134Z,1.09
2023-03-15T23:18:52.670Z,1.00
2023-03-15T23:21:19.330Z,0.93
2023-03-15T23:23:45.961Z,0.89
2023-03-15T23:26:15.100Z,0.94
2023-03-15T23:28:41.901Z,0.96
2023-03-15T23:31:08.838Z,0.84
2023-03-15T23:33:35.708Z,0.85
2023-03-15T23:36:03.947Z,0.73
2023-03-15T23:38:34.017Z,0.81
2023-03-15T23:41:00.942Z,0.77
2023-03-15T23:43:27.966Z,0.76
2023-03-15T23:45:58.532Z,0.75
2023-03-15T23:48:26.160Z,0.73
2023-03-15T23:50:54.770Z,0.70
2023-03-15T23:53:21.671Z,0.71
2023-03-15T23:55:48.603Z,0.70
2023-03-15T23:58:15.237Z,0.71
